American Star — WDD7311 — position and weather

sailwx.info

Track history (hours):
 
Tides and Currents Weather Stations Pressure Air Temp Water Temp Dewpoint Dewpoint Depression Visibility Wind Speed Wind Dir Waves Ship Positions

American Star

Owner: American Cruise Lines, Inc, Guilford, CT. More information available from US FCC via Universal Licensing System and Coast Guard Vessel Documentation Center.

Last reported at 2017-Oct-22 00:24 UTC. Time now 2017-Oct-22 12:19 UTC.
Position N 40°59' W 073°54'.

Length 60 m; draft 2.1 m.

Type: Ship (hazmat cat C). MMSI: 367184740.

Date/timePositionNaut miles runAvg speedWind from/ knotsBaromVisibWave heightAir tempDewpointWater temp
2017-Oct-22 00:24N 40°59' W 073°54'4 9.6
2017-Oct-21 23:59N 40°55' W 073°55'4 9.1
2017-Oct-21 23:30N 40°51' W 073°57'5 9.1
2017-Oct-21 23:00N 40°47' W 073°60'4 8.9
2017-Oct-21 22:30N 40°42' W 074°02'2 3.4
2017-Oct-21 22:00N 40°42' W 073°59'0 0.4
2017-Oct-21 21:28N 40°43' W 073°59'0 0.0
2017-Oct-21 20:59N 40°43' W 073°59'0 0.0
2017-Oct-21 20:30N 40°43' W 073°59'0 0.0
2017-Oct-21 20:01N 40°43' W 073°59'0 0.0
2017-Oct-21 19:30N 40°43' W 073°59'0 0.0
2017-Oct-21 19:00N 40°43' W 073°59'0 0.0
2017-Oct-21 18:30N 40°43' W 073°59'0 0.0
2017-Oct-21 18:00N 40°43' W 073°59'0 0.0
2017-Oct-21 17:30N 40°43' W 073°59'0 0.0
2017-Oct-21 17:00N 40°43' W 073°59'0 0.0
2017-Oct-21 16:30N 40°43' W 073°59'0 0.0
2017-Oct-21 16:00N 40°43' W 073°59'0 0.0
2017-Oct-21 15:30N 40°43' W 073°59'0 0.0
2017-Oct-21 15:00N 40°43' W 073°59'0 0.0
2017-Oct-21 14:30N 40°43' W 073°59'0 0.0
2017-Oct-21 13:30N 40°43' W 073°59'0 0.0
2017-Oct-21 13:00N 40°43' W 073°59'0 0.0
2017-Oct-21 12:29N 40°43' W 073°59'0 0.0
2017-Oct-21 12:00N 40°43' W 073°59'0 0.0
2017-Oct-21 11:29N 40°43' W 073°59'0 0.0
2017-Oct-21 10:59N 40°43' W 073°59'0 0.0
2017-Oct-21 10:30N 40°43' W 073°59'0 0.0
2017-Oct-21 10:00N 40°43' W 073°59'0 0.0
2017-Oct-21 09:30N 40°43' W 073°59'0 0.0
2017-Oct-21 09:00N 40°43' W 073°59'0 0.0
2017-Oct-21 08:31N 40°43' W 073°59'0 0.0
2017-Oct-21 08:01N 40°43' W 073°59'0 0.0
2017-Oct-21 07:31N 40°43' W 073°59'0 0.0
2017-Oct-21 07:01N 40°43' W 073°59'0 0.0
2017-Oct-21 06:31N 40°43' W 073°59'0 0.0
2017-Oct-21 06:01N 40°43' W 073°59'0 0.0
2017-Oct-21 05:31N 40°43' W 073°59'0 0.0
2017-Oct-21 05:01N 40°43' W 073°59'0 0.2
2017-Oct-21 04:31N 40°43' W 073°59'0 0.2
2017-Oct-21 04:01N 40°43' W 073°59'0 0.0
2017-Oct-21 03:31N 40°43' W 073°59'0 0.1
2017-Oct-21 03:00N 40°43' W 073°59'0 0.0
2017-Oct-21 02:30N 40°43' W 073°59'0 0.0
2017-Oct-21 02:01N 40°43' W 073°59'0 0.0
2017-Oct-21 01:31N 40°43' W 073°59'0 0.0
2017-Oct-21 01:01N 40°43' W 073°59'0 0.0
2017-Oct-21 00:31N 40°43' W 073°59'0 0.0
2017-Oct-21 00:01N 40°43' W 073°59'0 0.0
2017-Oct-20 23:31N 40°43' W 073°59'0 0.2
2017-Oct-20 23:00N 40°42' W 073°59'3 5.7
2017-Oct-20 22:30N 40°45' W 074°01'612.5
2017-Oct-20 22:00N 40°51' W 073°57'6 0.5
2017-Oct-20 11:26N 40°56' W 073°54'1 1.2
2017-Oct-20 10:59N 40°56' W 073°55'  
2017-Oct-14 23:54N 40°58' W 073°54'511.0
2017-Oct-14 23:30N 40°54' W 073°55'611.3
2017-Oct-14 23:00N 40°49' W 073°59'611.2
2017-Oct-14 22:30N 40°43' W 074°01'2 3.5
2017-Oct-14 22:00N 40°42' W 073°60'0 0.8
2017-Oct-14 21:30N 40°43' W 073°59'0 0.0
2017-Oct-14 21:00N 40°43' W 073°59'0 0.0
2017-Oct-14 20:30N 40°43' W 073°59'0 0.0
2017-Oct-14 20:00N 40°43' W 073°59'0 0.0
2017-Oct-14 19:30N 40°43' W 073°59'0 0.0
2017-Oct-14 19:00N 40°43' W 073°59'0 0.0
2017-Oct-14 18:30N 40°43' W 073°59'0 0.0
2017-Oct-14 18:00N 40°43' W 073°59'0 0.0
2017-Oct-14 17:30N 40°43' W 073°59'0 0.0
2017-Oct-14 17:00N 40°43' W 073°59'0 0.0
2017-Oct-14 16:30N 40°43' W 073°59'0 0.0
2017-Oct-14 16:00N 40°43' W 073°59'0 0.0
2017-Oct-14 15:30N 40°43' W 073°59'0 0.0
2017-Oct-14 15:00N 40°43' W 073°59'0 0.0
2017-Oct-14 14:30N 40°43' W 073°59'0 0.0
2017-Oct-14 14:00N 40°43' W 073°59'0 0.0
2017-Oct-14 13:30N 40°43' W 073°59'0 0.0
2017-Oct-14 13:00N 40°43' W 073°59'0 0.0
2017-Oct-14 12:29N 40°43' W 073°59'0 0.0
2017-Oct-14 12:00N 40°43' W 073°59'0 0.0
2017-Oct-14 11:30N 40°43' W 073°59'0 0.0
2017-Oct-14 11:00N 40°43' W 073°59'0 0.0
2017-Oct-14 10:30N 40°43' W 073°59'0 0.0
2017-Oct-14 10:00N 40°43' W 073°59'0 0.0
2017-Oct-14 09:30N 40°43' W 073°59'0 0.0
2017-Oct-14 09:00N 40°43' W 073°59'0 0.0
2017-Oct-14 08:30N 40°43' W 073°59'0 0.0
2017-Oct-14 08:01N 40°43' W 073°59'0 0.0
2017-Oct-14 07:30N 40°43' W 073°59'0 0.0
2017-Oct-14 07:00N 40°43' W 073°59'0 0.0
2017-Oct-14 06:30N 40°43' W 073°59'0 0.0
2017-Oct-14 06:00N 40°43' W 073°59'0 0.0
2017-Oct-14 05:30N 40°43' W 073°59'0 0.1
2017-Oct-14 05:00N 40°43' W 073°59'0 0.1
2017-Oct-14 04:30N 40°43' W 073°59'0 0.0
2017-Oct-14 04:00N 40°43' W 073°59'0 0.0
2017-Oct-14 03:30N 40°43' W 073°59'0 0.0
2017-Oct-14 03:00N 40°43' W 073°59'0 0.0
2017-Oct-14 02:30N 40°43' W 073°59'0 0.0
2017-Oct-14 02:00N 40°43' W 073°59'0 0.0
2017-Oct-14 01:30N 40°43' W 073°59'0 0.0
2017-Oct-14 01:00N 40°43' W 073°59'0 0.0
2017-Oct-14 00:29N 40°43' W 073°59'0 0.0
2017-Oct-14 00:00N 40°43' W 073°59'0 0.0
2017-Oct-13 23:30N 40°43' W 073°59'0 0.0
2017-Oct-13 23:00N 40°43' W 073°59'0 0.0
2017-Oct-13 22:30N 40°43' W 073°59'0 0.0
2017-Oct-13 22:00N 40°43' W 073°59'0 0.0
2017-Oct-13 21:30N 40°43' W 073°59'0 0.0
2017-Oct-13 21:00N 40°43' W 073°59'0 0.0
2017-Oct-13 20:30N 40°43' W 073°59'0 0.1
2017-Oct-13 20:00N 40°43' W 073°59'2 4.6
2017-Oct-13 19:30N 40°44' W 074°01'5 9.1
2017-Oct-13 19:00N 40°48' W 073°59'5 9.4
2017-Oct-13 18:30N 40°53' W 073°56'4 2.3
2017-Oct-13 16:55N 40°56' W 073°54'0 0.0
2017-Oct-13 16:28N 40°56' W 073°54'0 0.0
2017-Oct-13 15:54N 40°56' W 073°54'0 0.0
2017-Oct-13 15:30N 40°56' W 073°54'0 0.0
2017-Oct-13 15:00N 40°56' W 073°54'0 0.0
2017-Oct-13 14:30N 40°56' W 073°54'0 0.0
2017-Oct-13 14:00N 40°56' W 073°54'0 0.0
2017-Oct-13 13:21N 40°56' W 073°54'0 0.0
2017-Oct-13 13:00N 40°56' W 073°54'0 0.0
2017-Oct-13 12:29N 40°56' W 073°54'0 0.0
2017-Oct-13 12:00N 40°56' W 073°54'1 2.0
2017-Oct-13 11:30N 40°57' W 073°54'  
Track history (hours):
 
Tides and Currents Weather Stations Pressure Air Temp Water Temp Dewpoint Dewpoint Depression Visibility Wind Speed Wind Dir Waves Ship Positions

American Star

Owner: American Cruise Lines, Inc, Guilford, CT. More information available from US FCC via Universal Licensing System and Coast Guard Vessel Documentation Center.

Last reported at 2017-Oct-22 00:24 UTC. Time now 2017-Oct-22 12:19 UTC.
Position N 40°59' W 073°54'.

Length 60 m; draft 2.1 m.

Type: Ship (hazmat cat C). MMSI: 367184740.

Date/timePositionNaut miles runAvg speedWind from/ knotsBaromVisibWave heightAir tempDewpointWater temp
2017-Oct-22 00:24N 40°59' W 073°54'4 9.6
2017-Oct-21 23:59N 40°55' W 073°55'4 9.1
2017-Oct-21 23:30N 40°51' W 073°57'5 9.1
2017-Oct-21 23:00N 40°47' W 073°60'4 8.9
2017-Oct-21 22:30N 40°42' W 074°02'2 3.4
2017-Oct-21 22:00N 40°42' W 073°59'0 0.4
2017-Oct-21 21:28N 40°43' W 073°59'0 0.0
2017-Oct-21 20:59N 40°43' W 073°59'0 0.0
2017-Oct-21 20:30N 40°43' W 073°59'0 0.0
2017-Oct-21 20:01N 40°43' W 073°59'0 0.0
2017-Oct-21 19:30N 40°43' W 073°59'0 0.0
2017-Oct-21 19:00N 40°43' W 073°59'0 0.0
2017-Oct-21 18:30N 40°43' W 073°59'0 0.0
2017-Oct-21 18:00N 40°43' W 073°59'0 0.0
2017-Oct-21 17:30N 40°43' W 073°59'0 0.0
2017-Oct-21 17:00N 40°43' W 073°59'0 0.0
2017-Oct-21 16:30N 40°43' W 073°59'0 0.0
2017-Oct-21 16:00N 40°43' W 073°59'0 0.0
2017-Oct-21 15:30N 40°43' W 073°59'0 0.0
2017-Oct-21 15:00N 40°43' W 073°59'0 0.0
2017-Oct-21 14:30N 40°43' W 073°59'0 0.0
2017-Oct-21 13:30N 40°43' W 073°59'0 0.0
2017-Oct-21 13:00N 40°43' W 073°59'0 0.0
2017-Oct-21 12:29N 40°43' W 073°59'0 0.0
2017-Oct-21 12:00N 40°43' W 073°59'0 0.0
2017-Oct-21 11:29N 40°43' W 073°59'0 0.0
2017-Oct-21 10:59N 40°43' W 073°59'0 0.0
2017-Oct-21 10:30N 40°43' W 073°59'0 0.0
2017-Oct-21 10:00N 40°43' W 073°59'0 0.0
2017-Oct-21 09:30N 40°43' W 073°59'0 0.0
2017-Oct-21 09:00N 40°43' W 073°59'0 0.0
2017-Oct-21 08:31N 40°43' W 073°59'0 0.0
2017-Oct-21 08:01N 40°43' W 073°59'0 0.0
2017-Oct-21 07:31N 40°43' W 073°59'0 0.0
2017-Oct-21 07:01N 40°43' W 073°59'0 0.0
2017-Oct-21 06:31N 40°43' W 073°59'0 0.0
2017-Oct-21 06:01N 40°43' W 073°59'0 0.0
2017-Oct-21 05:31N 40°43' W 073°59'0 0.0
2017-Oct-21 05:01N 40°43' W 073°59'0 0.2
2017-Oct-21 04:31N 40°43' W 073°59'0 0.2
2017-Oct-21 04:01N 40°43' W 073°59'0 0.0
2017-Oct-21 03:31N 40°43' W 073°59'0 0.1
2017-Oct-21 03:00N 40°43' W 073°59'0 0.0
2017-Oct-21 02:30N 40°43' W 073°59'0 0.0
2017-Oct-21 02:01N 40°43' W 073°59'0 0.0
2017-Oct-21 01:31N 40°43' W 073°59'0 0.0
2017-Oct-21 01:01N 40°43' W 073°59'0 0.0
2017-Oct-21 00:31N 40°43' W 073°59'0 0.0
2017-Oct-21 00:01N 40°43' W 073°59'0 0.0
2017-Oct-20 23:31N 40°43' W 073°59'0 0.2
2017-Oct-20 23:00N 40°42' W 073°59'3 5.7
2017-Oct-20 22:30N 40°45' W 074°01'612.5
2017-Oct-20 22:00N 40°51' W 073°57'6 0.5
2017-Oct-20 11:26N 40°56' W 073°54'1 1.2
2017-Oct-20 10:59N 40°56' W 073°55'  
2017-Oct-14 23:54N 40°58' W 073°54'511.0
2017-Oct-14 23:30N 40°54' W 073°55'611.3
2017-Oct-14 23:00N 40°49' W 073°59'611.2
2017-Oct-14 22:30N 40°43' W 074°01'2 3.5
2017-Oct-14 22:00N 40°42' W 073°60'0 0.8
2017-Oct-14 21:30N 40°43' W 073°59'0 0.0
2017-Oct-14 21:00N 40°43' W 073°59'0 0.0
2017-Oct-14 20:30N 40°43' W 073°59'0 0.0
2017-Oct-14 20:00N 40°43' W 073°59'0 0.0
2017-Oct-14 19:30N 40°43' W 073°59'0 0.0
2017-Oct-14 19:00N 40°43' W 073°59'0 0.0
2017-Oct-14 18:30N 40°43' W 073°59'0 0.0
2017-Oct-14 18:00N 40°43' W 073°59'0 0.0
2017-Oct-14 17:30N 40°43' W 073°59'0 0.0
2017-Oct-14 17:00N 40°43' W 073°59'0 0.0
2017-Oct-14 16:30N 40°43' W 073°59'0 0.0
2017-Oct-14 16:00N 40°43' W 073°59'0 0.0
2017-Oct-14 15:30N 40°43' W 073°59'0 0.0
2017-Oct-14 15:00N 40°43' W 073°59'0 0.0
2017-Oct-14 14:30N 40°43' W 073°59'0 0.0
2017-Oct-14 14:00N 40°43' W 073°59'0 0.0
2017-Oct-14 13:30N 40°43' W 073°59'0 0.0
2017-Oct-14 13:00N 40°43' W 073°59'0 0.0
2017-Oct-14 12:29N 40°43' W 073°59'0 0.0
2017-Oct-14 12:00N 40°43' W 073°59'0 0.0
2017-Oct-14 11:30N 40°43' W 073°59'0 0.0
2017-Oct-14 11:00N 40°43' W 073°59'0 0.0
2017-Oct-14 10:30N 40°43' W 073°59'0 0.0
2017-Oct-14 10:00N 40°43' W 073°59'0 0.0
2017-Oct-14 09:30N 40°43' W 073°59'0 0.0
2017-Oct-14 09:00N 40°43' W 073°59'0 0.0
2017-Oct-14 08:30N 40°43' W 073°59'0 0.0
2017-Oct-14 08:01N 40°43' W 073°59'0 0.0
2017-Oct-14 07:30N 40°43' W 073°59'0 0.0
2017-Oct-14 07:00N 40°43' W 073°59'0 0.0
2017-Oct-14 06:30N 40°43' W 073°59'0 0.0
2017-Oct-14 06:00N 40°43' W 073°59'0 0.0
2017-Oct-14 05:30N 40°43' W 073°59'0 0.1
2017-Oct-14 05:00N 40°43' W 073°59'0 0.1
2017-Oct-14 04:30N 40°43' W 073°59'0 0.0
2017-Oct-14 04:00N 40°43' W 073°59'0 0.0
2017-Oct-14 03:30N 40°43' W 073°59'0 0.0
2017-Oct-14 03:00N 40°43' W 073°59'0 0.0
2017-Oct-14 02:30N 40°43' W 073°59'0 0.0
2017-Oct-14 02:00N 40°43' W 073°59'0 0.0
2017-Oct-14 01:30N 40°43' W 073°59'0 0.0
2017-Oct-14 01:00N 40°43' W 073°59'0 0.0
2017-Oct-14 00:29N 40°43' W 073°59'0 0.0
2017-Oct-14 00:00N 40°43' W 073°59'0 0.0
2017-Oct-13 23:30N 40°43' W 073°59'0 0.0
2017-Oct-13 23:00N 40°43' W 073°59'0 0.0
2017-Oct-13 22:30N 40°43' W 073°59'0 0.0
2017-Oct-13 22:00N 40°43' W 073°59'0 0.0
2017-Oct-13 21:30N 40°43' W 073°59'0 0.0
2017-Oct-13 21:00N 40°43' W 073°59'0 0.0
2017-Oct-13 20:30N 40°43' W 073°59'0 0.1
2017-Oct-13 20:00N 40°43' W 073°59'2 4.6
2017-Oct-13 19:30N 40°44' W 074°01'5 9.1
2017-Oct-13 19:00N 40°48' W 073°59'5 9.4
2017-Oct-13 18:30N 40°53' W 073°56'4 2.3
2017-Oct-13 16:55N 40°56' W 073°54'0 0.0
2017-Oct-13 16:28N 40°56' W 073°54'0 0.0
2017-Oct-13 15:54N 40°56' W 073°54'0 0.0
2017-Oct-13 15:30N 40°56' W 073°54'0 0.0
2017-Oct-13 15:00N 40°56' W 073°54'0 0.0
2017-Oct-13 14:30N 40°56' W 073°54'0 0.0
2017-Oct-13 14:00N 40°56' W 073°54'0 0.0
2017-Oct-13 13:21N 40°56' W 073°54'0 0.0
2017-Oct-13 13:00N 40°56' W 073°54'0 0.0
2017-Oct-13 12:29N 40°56' W 073°54'0 0.0
2017-Oct-13 12:00N 40°56' W 073°54'1 2.0
2017-Oct-13 11:30N 40°57' W 073°54'  

Dump ship's entire track history